sensor_id;sensor_type;location;lat;lon;timestamp;P1;durP1;ratioP1;P2;durP2;ratioP2
64595;SDS011;51003;51.628;6.670;2024-01-10T11:25:58;17.43;;;9.00;;
64595;SDS011;51003;51.628;6.670;2024-01-10T11:28:29;19.37;;;8.17;;
64595;SDS011;51003;51.628;6.670;2024-01-10T11:30:55;19.93;;;8.17;;
64595;SDS011;51003;51.628;6.670;2024-01-10T11:36:05;18.63;;;9.53;;
64595;SDS011;51003;51.628;6.670;2024-01-10T11:38:50;21.53;;;10.60;;
64595;SDS011;51003;51.628;6.670;2024-01-10T11:46:34;21.17;;;11.00;;
64595;SDS011;51003;51.628;6.670;2024-01-10T11:49:03;19.53;;;10.67;;
64595;SDS011;51003;51.628;6.670;2024-01-10T11:51:29;20.10;;;11.20;;
64595;SDS011;51003;51.628;6.670;2024-01-10T11:53:54;21.30;;;11.63;;
64595;SDS011;51003;51.628;6.670;2024-01-10T11:56:22;19.43;;;10.80;;
64595;SDS011;51003;51.628;6.670;2024-01-10T12:01:29;21.23;;;11.13;;
64595;SDS011;51003;51.628;6.670;2024-01-10T12:03:54;20.00;;;11.13;;
64595;SDS011;51003;51.628;6.670;2024-01-10T12:06:21;18.80;;;10.30;;
64595;SDS011;51003;51.628;6.670;2024-01-10T12:08:47;20.93;;;10.17;;
64595;SDS011;51003;51.628;6.670;2024-01-10T12:11:13;19.07;;;10.37;;
64595;SDS011;51003;51.628;6.670;2024-01-10T12:13:38;21.93;;;10.23;;
64595;SDS011;51003;51.628;6.670;2024-01-10T12:16:04;18.70;;;9.77;;
64595;SDS011;51003;51.628;6.670;2024-01-10T12:18:30;20.17;;;10.10;;
64595;SDS011;51003;51.628;6.670;2024-01-10T12:20:55;19.90;;;9.50;;
64595;SDS011;51003;51.628;6.670;2024-01-10T12:23:21;19.77;;;10.00;;
64595;SDS011;51003;51.628;6.670;2024-01-10T12:25:48;22.80;;;9.93;;
64595;SDS011;51003;51.628;6.670;2024-01-10T12:28:17;19.23;;;9.20;;
64595;SDS011;51003;51.628;6.670;2024-01-10T12:30:42;19.33;;;9.43;;
64595;SDS011;51003;51.628;6.670;2024-01-10T12:33:10;25.63;;;11.60;;
64595;SDS011;51003;51.628;6.670;2024-01-10T12:35:36;17.00;;;9.27;;
64595;SDS011;51003;51.628;6.670;2024-01-10T12:38:06;19.53;;;10.00;;
64595;SDS011;51003;51.628;6.670;2024-01-10T12:40:31;23.13;;;10.53;;
64595;SDS011;51003;51.628;6.670;2024-01-10T12:43:04;19.37;;;10.53;;
64595;SDS011;51003;51.628;6.670;2024-01-10T12:45:29;23.10;;;10.60;;
64595;SDS011;51003;51.628;6.670;2024-01-10T12:47:55;20.57;;;9.90;;
64595;SDS011;51003;51.628;6.670;2024-01-10T12:50:20;21.27;;;11.33;;
64595;SDS011;51003;51.628;6.670;2024-01-10T12:52:46;18.33;;;10.80;;
64595;SDS011;51003;51.628;6.670;2024-01-10T12:55:13;22.23;;;11.20;;
64595;SDS011;51003;51.628;6.670;2024-01-10T12:57:39;19.90;;;11.20;;
64595;SDS011;51003;51.628;6.670;2024-01-10T13:00:04;22.90;;;12.00;;
64595;SDS011;51003;51.628;6.670;2024-01-10T13:02:33;19.90;;;10.83;;
64595;SDS011;51003;51.628;6.670;2024-01-10T13:05:02;24.13;;;11.47;;
64595;SDS011;51003;51.628;6.670;2024-01-10T13:07:34;19.67;;;10.43;;
64595;SDS011;51003;51.628;6.670;2024-01-10T13:10:02;20.50;;;11.07;;
64595;SDS011;51003;51.628;6.670;2024-01-10T13:12:28;18.93;;;10.57;;
64595;SDS011;51003;51.628;6.670;2024-01-10T13:14:53;22.57;;;12.00;;
64595;SDS011;51003;51.628;6.670;2024-01-10T13:17:19;22.77;;;11.67;;
64595;SDS011;51003;51.628;6.670;2024-01-10T13:19:45;18.70;;;10.43;;
64595;SDS011;51003;51.628;6.670;2024-01-10T13:22:14;20.03;;;11.57;;
64595;SDS011;51003;51.628;6.670;2024-01-10T13:24:42;20.57;;;11.47;;
64595;SDS011;51003;51.628;6.670;2024-01-10T13:27:08;22.80;;;11.50;;
64595;SDS011;51003;51.628;6.670;2024-01-10T13:29:35;17.97;;;10.23;;
64595;SDS011;51003;51.628;6.670;2024-01-10T13:32:02;18.53;;;11.10;;
64595;SDS011;51003;51.628;6.670;2024-01-10T13:34:28;20.83;;;11.50;;
64595;SDS011;51003;51.628;6.670;2024-01-10T13:36:53;20.43;;;10.80;;
64595;SDS011;51003;51.628;6.670;2024-01-10T13:39:19;19.00;;;10.63;;
64595;SDS011;51003;51.628;6.670;2024-01-10T13:41:44;21.70;;;10.07;;
64595;SDS011;51003;51.628;6.670;2024-01-10T13:44:09;23.50;;;10.93;;
64595;SDS011;51003;51.628;6.670;2024-01-10T13:46:35;21.90;;;10.17;;
64595;SDS011;51003;51.628;6.670;2024-01-10T13:49:00;19.67;;;10.43;;
64595;SDS011;51003;51.628;6.670;2024-01-10T13:51:26;19.00;;;10.43;;
64595;SDS011;51003;51.628;6.670;2024-01-10T13:53:51;21.97;;;10.13;;
64595;SDS011;51003;51.628;6.670;2024-01-10T13:56:17;20.43;;;9.60;;
64595;SDS011;51003;51.628;6.670;2024-01-10T13:58:42;22.80;;;9.20;;
64595;SDS011;51003;51.628;6.670;2024-01-10T14:01:07;17.70;;;8.93;;
64595;SDS011;51003;51.628;6.670;2024-01-10T14:03:33;17.97;;;8.13;;
64595;SDS011;51003;51.628;6.670;2024-01-10T14:05:58;24.50;;;9.20;;
64595;SDS011;51003;51.628;6.670;2024-01-10T14:08:24;19.93;;;9.63;;
64595;SDS011;51003;51.628;6.670;2024-01-10T14:10:50;16.63;;;8.60;;
64595;SDS011;51003;51.628;6.670;2024-01-10T14:13:15;21.53;;;8.93;;
64595;SDS011;51003;51.628;6.670;2024-01-10T14:15:40;20.03;;;8.77;;
64595;SDS011;51003;51.628;6.670;2024-01-10T14:18:07;17.27;;;9.10;;
64595;SDS011;51003;51.628;6.670;2024-01-10T14:20:32;18.37;;;9.43;;
64595;SDS011;51003;51.628;6.670;2024-01-10T14:22:58;19.83;;;9.37;;
64595;SDS011;51003;51.628;6.670;2024-01-10T14:25:24;16.03;;;8.40;;
64595;SDS011;51003;51.628;6.670;2024-01-10T14:27:51;18.57;;;9.03;;
64595;SDS011;51003;51.628;6.670;2024-01-10T14:30:17;18.33;;;9.40;;
64595;SDS011;51003;51.628;6.670;2024-01-10T14:32:44;21.20;;;9.13;;
64595;SDS011;51003;51.628;6.670;2024-01-10T14:35:12;21.30;;;9.80;;
64595;SDS011;51003;51.628;6.670;2024-01-10T14:37:38;15.90;;;8.43;;
64595;SDS011;51003;51.628;6.670;2024-01-10T14:40:04;20.70;;;9.40;;
64595;SDS011;51003;51.628;6.670;2024-01-10T14:42:31;22.80;;;10.17;;
64595;SDS011;51003;51.628;6.670;2024-01-10T14:44:58;19.63;;;9.40;;
64595;SDS011;51003;51.628;6.670;2024-01-10T14:47:24;15.67;;;8.60;;
64595;SDS011;51003;51.628;6.670;2024-01-10T14:49:49;20.43;;;8.83;;
64595;SDS011;51003;51.628;6.670;2024-01-10T14:52:15;19.33;;;9.17;;
64595;SDS011;51003;51.628;6.670;2024-01-10T14:54:40;21.33;;;8.80;;
64595;SDS011;51003;51.628;6.670;2024-01-10T14:57:05;20.30;;;9.50;;
64595;SDS011;51003;51.628;6.670;2024-01-10T14:59:31;21.30;;;10.37;;
64595;SDS011;51003;51.628;6.670;2024-01-10T15:01:56;20.00;;;9.30;;
64595;SDS011;51003;51.628;6.670;2024-01-10T15:04:21;18.63;;;9.40;;
64595;SDS011;51003;51.628;6.670;2024-01-10T15:06:47;22.70;;;9.00;;
64595;SDS011;51003;51.628;6.670;2024-01-10T15:09:13;21.87;;;9.70;;
64595;SDS011;51003;51.628;6.670;2024-01-10T15:11:39;20.90;;;9.33;;
64595;SDS011;51003;51.628;6.670;2024-01-10T15:14:06;20.23;;;9.30;;
64595;SDS011;51003;51.628;6.670;2024-01-10T15:16:34;18.20;;;8.80;;
64595;SDS011;51003;51.628;6.670;2024-01-10T15:19:00;21.67;;;9.43;;
64595;SDS011;51003;51.628;6.670;2024-01-10T15:21:25;16.90;;;8.93;;
64595;SDS011;51003;51.628;6.670;2024-01-10T15:23:52;18.90;;;9.17;;
64595;SDS011;51003;51.628;6.670;2024-01-10T15:26:19;21.30;;;9.00;;
64595;SDS011;51003;51.628;6.670;2024-01-10T15:28:45;20.27;;;9.10;;
64595;SDS011;51003;51.628;6.670;2024-01-10T15:31:28;25.53;;;10.00;;
64595;SDS011;51003;51.628;6.670;2024-01-10T15:33:54;18.13;;;8.25;;
64595;SDS011;51003;51.628;6.670;2024-01-10T15:36:19;20.53;;;8.53;;
64595;SDS011;51003;51.628;6.670;2024-01-10T15:38:45;17.90;;;8.63;;
64595;SDS011;51003;51.628;6.670;2024-01-10T15:41:10;20.13;;;10.00;;
64595;SDS011;51003;51.628;6.670;2024-01-10T15:43:36;17.63;;;9.83;;
64595;SDS011;51003;51.628;6.670;2024-01-10T15:46:01;20.00;;;10.00;;
64595;SDS011;51003;51.628;6.670;2024-01-10T15:48:27;24.93;;;9.77;;
64595;SDS011;51003;51.628;6.670;2024-01-10T15:50:53;21.87;;;9.63;;
64595;SDS011;51003;51.628;6.670;2024-01-10T15:53:20;17.30;;;9.60;;
64595;SDS011;51003;51.628;6.670;2024-01-10T15:55:45;18.07;;;9.53;;
64595;SDS011;51003;51.628;6.670;2024-01-10T15:58:10;21.20;;;10.23;;
64595;SDS011;51003;51.628;6.670;2024-01-10T16:00:36;21.43;;;9.47;;
64595;SDS011;51003;51.628;6.670;2024-01-10T16:03:01;18.60;;;9.43;;
64595;SDS011;51003;51.628;6.670;2024-01-10T16:05:28;22.48;;;10.10;;
64595;SDS011;51003;51.628;6.670;2024-01-10T16:07:54;19.70;;;10.10;;
64595;SDS011;51003;51.628;6.670;2024-01-10T16:10:19;22.43;;;10.50;;
64595;SDS011;51003;51.628;6.670;2024-01-10T16:12:45;15.73;;;8.57;;
64595;SDS011;51003;51.628;6.670;2024-01-10T16:15:10;21.27;;;9.60;;
64595;SDS011;51003;51.628;6.670;2024-01-10T16:17:35;19.97;;;9.77;;
64595;SDS011;51003;51.628;6.670;2024-01-10T16:20:01;20.87;;;10.10;;
64595;SDS011;51003;51.628;6.670;2024-01-10T16:22:30;21.05;;;9.60;;
64595;SDS011;51003;51.628;6.670;2024-01-10T16:24:58;20.23;;;10.05;;
64595;SDS011;51003;51.628;6.670;2024-01-10T16:27:24;24.50;;;9.63;;
64595;SDS011;51003;51.628;6.670;2024-01-10T16:29:49;17.50;;;10.00;;
64595;SDS011;51003;51.628;6.670;2024-01-10T16:32:14;18.60;;;10.40;;
64595;SDS011;51003;51.628;6.670;2024-01-10T16:34:40;20.93;;;9.40;;
64595;SDS011;51003;51.628;6.670;2024-01-10T16:37:06;22.83;;;10.80;;
64595;SDS011;51003;51.628;6.670;2024-01-10T16:39:32;25.08;;;10.55;;
64595;SDS011;51003;51.628;6.670;2024-01-10T16:41:58;22.00;;;10.50;;
64595;SDS011;51003;51.628;6.670;2024-01-10T16:44:23;21.73;;;11.10;;
64595;SDS011;51003;51.628;6.670;2024-01-10T16:46:48;18.97;;;10.23;;
64595;SDS011;51003;51.628;6.670;2024-01-10T16:49:14;18.97;;;9.90;;
64595;SDS011;51003;51.628;6.670;2024-01-10T16:51:39;17.47;;;9.87;;
64595;SDS011;51003;51.628;6.670;2024-01-10T16:54:05;22.27;;;10.73;;
64595;SDS011;51003;51.628;6.670;2024-01-10T16:56:30;21.27;;;10.87;;
64595;SDS011;51003;51.628;6.670;2024-01-10T16:58:55;25.30;;;12.00;;
64595;SDS011;51003;51.628;6.670;2024-01-10T17:01:21;21.57;;;10.70;;
64595;SDS011;51003;51.628;6.670;2024-01-10T17:03:46;21.77;;;10.63;;
64595;SDS011;51003;51.628;6.670;2024-01-10T17:06:12;21.47;;;10.67;;
64595;SDS011;51003;51.628;6.670;2024-01-10T17:08:37;24.07;;;11.20;;
64595;SDS011;51003;51.628;6.670;2024-01-10T17:11:03;21.37;;;11.10;;
64595;SDS011;51003;51.628;6.670;2024-01-10T17:13:29;21.23;;;11.57;;
64595;SDS011;51003;51.628;6.670;2024-01-10T17:15:57;25.00;;;12.03;;
64595;SDS011;51003;51.628;6.670;2024-01-10T17:18:22;25.70;;;12.50;;
64595;SDS011;51003;51.628;6.670;2024-01-10T17:20:48;27.37;;;13.13;;
64595;SDS011;51003;51.628;6.670;2024-01-10T17:23:13;24.00;;;12.87;;
64595;SDS011;51003;51.628;6.670;2024-01-10T17:25:39;21.40;;;12.47;;
64595;SDS011;51003;51.628;6.670;2024-01-10T17:28:04;26.67;;;13.20;;
64595;SDS011;51003;51.628;6.670;2024-01-10T17:30:30;27.00;;;13.97;;
64595;SDS011;51003;51.628;6.670;2024-01-10T17:32:57;27.40;;;14.65;;
64595;SDS011;51003;51.628;6.670;2024-01-10T17:35:22;23.93;;;13.03;;
64595;SDS011;51003;51.628;6.670;2024-01-10T17:37:48;37.63;;;16.47;;
64595;SDS011;51003;51.628;6.670;2024-01-10T17:40:13;27.50;;;13.60;;
64595;SDS011;51003;51.628;6.670;2024-01-10T17:42:39;31.20;;;14.13;;
64595;SDS011;51003;51.628;6.670;2024-01-10T17:45:07;35.00;;;14.83;;
64595;SDS011;51003;51.628;6.670;2024-01-10T17:47:33;30.05;;;15.30;;
64595;SDS011;51003;51.628;6.670;2024-01-10T17:49:59;38.10;;;16.20;;
64595;SDS011;51003;51.628;6.670;2024-01-10T17:52:24;31.57;;;15.50;;
64595;SDS011;51003;51.628;6.670;2024-01-10T17:54:49;34.07;;;16.17;;
64595;SDS011;51003;51.628;6.670;2024-01-10T17:57:15;33.07;;;16.77;;
64595;SDS011;51003;51.628;6.670;2024-01-10T17:59:47;28.73;;;14.40;;
64595;SDS011;51003;51.628;6.670;2024-01-10T18:02:14;30.38;;;14.07;;
64595;SDS011;51003;51.628;6.670;2024-01-10T18:04:40;31.90;;;14.40;;
64595;SDS011;51003;51.628;6.670;2024-01-10T18:07:06;27.08;;;13.10;;
64595;SDS011;51003;51.628;6.670;2024-01-10T18:09:31;25.60;;;12.30;;
64595;SDS011;51003;51.628;6.670;2024-01-10T18:11:57;23.60;;;12.70;;
64595;SDS011;51003;51.628;6.670;2024-01-10T18:14:22;26.23;;;12.03;;
64595;SDS011;51003;51.628;6.670;2024-01-10T18:16:48;23.20;;;11.10;;
64595;SDS011;51003;51.628;6.670;2024-01-10T18:19:14;22.98;;;11.70;;
64595;SDS011;51003;51.628;6.670;2024-01-10T18:21:40;20.57;;;11.00;;
64595;SDS011;51003;51.628;6.670;2024-01-10T18:24:05;23.03;;;11.10;;
64595;SDS011;51003;51.628;6.670;2024-01-10T18:26:30;19.80;;;11.73;;
64595;SDS011;51003;51.628;6.670;2024-01-10T18:28:56;20.87;;;11.00;;
64595;SDS011;51003;51.628;6.670;2024-01-10T18:31:21;25.90;;;11.93;;
64595;SDS011;51003;51.628;6.670;2024-01-10T18:33:47;25.13;;;11.90;;
64595;SDS011;51003;51.628;6.670;2024-01-10T18:36:13;21.80;;;11.17;;
64595;SDS011;51003;51.628;6.670;2024-01-10T18:38:42;21.65;;;11.15;;
64595;SDS011;51003;51.628;6.670;2024-01-10T18:41:07;21.10;;;11.07;;
64595;SDS011;51003;51.628;6.670;2024-01-10T18:43:33;24.77;;;12.13;;
64595;SDS011;51003;51.628;6.670;2024-01-10T18:45:58;22.30;;;11.80;;
64595;SDS011;51003;51.628;6.670;2024-01-10T18:48:24;26.20;;;11.83;;
64595;SDS011;51003;51.628;6.670;2024-01-10T18:50:49;22.03;;;11.40;;
64595;SDS011;51003;51.628;6.670;2024-01-10T18:53:15;24.52;;;12.05;;
64595;SDS011;51003;51.628;6.670;2024-01-10T18:55:41;23.90;;;11.70;;
64595;SDS011;51003;51.628;6.670;2024-01-10T18:58:06;23.40;;;11.80;;
64595;SDS011;51003;51.628;6.670;2024-01-10T19:00:36;24.02;;;12.13;;
64595;SDS011;51003;51.628;6.670;2024-01-10T19:03:02;22.50;;;11.70;;
64595;SDS011;51003;51.628;6.670;2024-01-10T19:05:28;21.20;;;11.95;;
64595;SDS011;51003;51.628;6.670;2024-01-10T19:07:54;24.60;;;12.90;;
64595;SDS011;51003;51.628;6.670;2024-01-10T19:10:19;22.97;;;12.53;;
64595;SDS011;51003;51.628;6.670;2024-01-10T19:12:45;27.50;;;12.40;;
64595;SDS011;51003;51.628;6.670;2024-01-10T19:15:10;29.47;;;13.07;;
64595;SDS011;51003;51.628;6.670;2024-01-10T19:17:38;26.88;;;13.63;;
64595;SDS011;51003;51.628;6.670;2024-01-10T19:20:05;29.90;;;13.30;;
64595;SDS011;51003;51.628;6.670;2024-01-10T19:22:31;24.33;;;12.50;;
64595;SDS011;51003;51.628;6.670;2024-01-10T19:24:56;25.90;;;13.47;;
64595;SDS011;51003;51.628;6.670;2024-01-10T19:27:21;25.10;;;12.67;;
64595;SDS011;51003;51.628;6.670;2024-01-10T19:29:47;25.33;;;12.40;;
64595;SDS011;51003;51.628;6.670;2024-01-10T19:32:12;24.77;;;12.73;;
64595;SDS011;51003;51.628;6.670;2024-01-10T19:34:38;28.93;;;12.97;;
64595;SDS011;51003;51.628;6.670;2024-01-10T19:37:04;28.07;;;13.80;;
64595;SDS011;51003;51.628;6.670;2024-01-10T19:39:32;25.10;;;12.50;;
64595;SDS011;51003;51.628;6.670;2024-01-10T19:41:58;27.20;;;14.37;;
64595;SDS011;51003;51.628;6.670;2024-01-10T19:44:24;25.93;;;12.63;;
64595;SDS011;51003;51.628;6.670;2024-01-10T19:46:50;24.38;;;13.05;;
64595;SDS011;51003;51.628;6.670;2024-01-10T19:49:15;27.00;;;13.23;;
64595;SDS011;51003;51.628;6.670;2024-01-10T19:51:42;24.00;;;13.20;;
64595;SDS011;51003;51.628;6.670;2024-01-10T19:54:09;26.65;;;13.93;;
64595;SDS011;51003;51.628;6.670;2024-01-10T19:56:35;31.87;;;14.53;;
64595;SDS011;51003;51.628;6.670;2024-01-10T19:59:00;23.77;;;13.13;;
64595;SDS011;51003;51.628;6.670;2024-01-10T20:01:26;27.83;;;13.57;;
64595;SDS011;51003;51.628;6.670;2024-01-10T20:03:52;28.27;;;14.10;;
64595;SDS011;51003;51.628;6.670;2024-01-10T20:06:17;28.17;;;14.60;;
64595;SDS011;51003;51.628;6.670;2024-01-10T20:08:44;25.98;;;13.38;;
64595;SDS011;51003;51.628;6.670;2024-01-10T20:11:09;33.17;;;14.70;;
64595;SDS011;51003;51.628;6.670;2024-01-10T20:13:35;33.27;;;14.27;;
64595;SDS011;51003;51.628;6.670;2024-01-10T20:16:00;30.07;;;13.73;;
64595;SDS011;51003;51.628;6.670;2024-01-10T20:18:29;27.80;;;14.00;;
64595;SDS011;51003;51.628;6.670;2024-01-10T20:20:56;33.95;;;14.93;;
64595;SDS011;51003;51.628;6.670;2024-01-10T20:23:22;30.90;;;14.90;;
64595;SDS011;51003;51.628;6.670;2024-01-10T20:25:47;34.50;;;15.10;;
64595;SDS011;51003;51.628;6.670;2024-01-10T20:28:12;34.33;;;15.33;;
64595;SDS011;51003;51.628;6.670;2024-01-10T20:30:40;33.85;;;15.60;;
64595;SDS011;51003;51.628;6.670;2024-01-10T20:33:06;30.60;;;15.20;;
64595;SDS011;51003;51.628;6.670;2024-01-10T20:35:31;29.50;;;14.20;;
64595;SDS011;51003;51.628;6.670;2024-01-10T20:37:57;29.67;;;14.60;;
64595;SDS011;51003;51.628;6.670;2024-01-10T20:40:23;41.07;;;17.17;;
